Aquinnah, Massachusetts
Current Conditions -  °F | °C
As of 8:53 PM on Saturday 25 Oct 2014 (Local Time) from KMVY Reporting Station
Clear Clear  
Wind Chill: 56°   Ceiling: Unl
Heat Index: 56°   Visibility: 10mi
Dew Point: 50°   Wind: 7mph
Humidity: 80%   Direction: 250°WSW
Pressure: 29.61"   Gusts: NA
Location:  41.3536°N, 70.7417°W
Report Text: KMVY 260053Z 25006KT 10SM CLR 13/10 A2961 RMK AO2 SLP028 T01330100
Loading
Personal Weather Stations






























Interactive Weather Map New forecast layout! Learn more

10-Day Weather Forecast

Advertisements
Track Severe Weather on mobile